Huvudsida
METAR-TAF:

METAR-TAF

Flygplatser :

Asjchabad, Turkmenistan

latitud: 37-59N, longitud: 058-22E, höjd: 211 m

Aktuellt väderrapport

Denna rapport gjordes för 56 minuter sedan, klockan 12:00 UTC
Vind 2 kt varierande vindriktning
Temperatur 16°C
Fuktighet 23%
Tryck 1025 hPa
Sikt 10 km eller mer

METAR: UTAA 121200Z VRB02KT 9999 NSC 16/M05 Q1025 R88/70D NOSIG

Tid: 17:56 (12:56 UTC)

Väderprognos

Denna rapport gjordes för 2 timmar och 9 minuter sedan, klockan 10:47 UTC
Prognos gäller från 12 kl. 12 UTC till 13 kl. 12 UTC
Vind 14 kt från ost
Sikt: 6000 m
Spridda moln på en höjd av 10000 ft
Temporärt
från 12 kl. 12 UTC till 12 kl. 15 UTC
Vind 12 kt från nord/nordost
Temporärt
från 12 kl. 16 UTC till 13 kl. 02 UTC
Vind 12 kt från syd/sydost
Temporärt
från 13 kl. 03 UTC till 13 kl. 08 UTC
Vind 14 kt från nord/nordost

TAF: UTAA 121047Z 1212/1312 08014KT 6000 SCT100 TEMPO 1212/1215 02012KT TEMPO 1216/1302 16012KT TEMPO 1303/1308 03014KT

Aktuella väderrapporter och prognoser från 4000 flygplatser (METAR- och TAF-rapporter).

De tillgängliga stationerna syns som gula och röda prickar på kartan.

För musen över prickarna för att se namnen på stationerna.

Klicka sedan för att få väderrapporter och prognoser.

För att ändra kartan: Klicka på de gröna knapparna med ett svart kors på för att zooma in; den gröna knappen med ett streck på för att zooma ut; eller på de gröna pilarna för angränsande kartor.


METAR-TAF: